Time;durP1;ratioP1;P1;durP2;ratioP2;P2;SDS_P1;SDS_P2;PMS_P1;PMS_P2;Temp;Humidity;BMP_temperature;BMP_pressure;BME280_temperature;BME280_humidity;BME280_pressure;Samples;Min_cycle;Max_cycle;Signal;HPM_P1;HPM_P2
2023/08/23 00:01:54;;;;;;;3.90;3.60;;;;;;;;;;5064213;28;20415;-92
2023/08/23 00:04:20;;;;;;;4.13;3.83;;;;;;;;;;5071430;28;20882;-90
2023/08/23 00:06:49;;;;;;;4.20;3.80;;;;;;;;;;5077483;28;20387;-90
2023/08/23 00:09:16;;;;;;;3.95;3.60;;;;;;;;;;5086557;28;20382;-91
2023/08/23 00:11:47;;;;;;;4.00;3.70;;;;;;;;;;5063663;28;20394;-91
2023/08/23 00:14:13;;;;;;;4.35;3.95;;;;;;;;;;5058185;28;20795;-90
2023/08/23 00:16:39;;;;;;;11.50;10.73;;;;;;;;;;5082414;28;20454;-90
2023/08/23 00:19:05;;;;;;;4.10;3.80;;;;;;;;;;5068698;28;20471;-90
2023/08/23 00:21:31;;;;;;;4.20;3.80;;;;;;;;;;5068744;28;20393;-90
2023/08/23 00:23:57;;;;;;;3.78;3.47;;;;;;;;;;5070997;28;20451;-90
2023/08/23 00:26:26;;;;;;;4.05;3.78;;;;;;;;;;5072843;28;20436;-90
2023/08/23 00:28:52;;;;;;;4.45;4.05;;;;;;;;;;5064935;28;20387;-90
2023/08/23 00:31:18;;;;;;;5.57;3.95;;;;;;;;;;5067993;28;20479;-90
2023/08/23 00:33:44;;;;;;;4.10;3.80;;;;;;;;;;5064420;28;20860;-91
2023/08/23 00:36:10;;;;;;;4.45;4.05;;;;;;;;;;5074866;28;20386;-90
2023/08/23 00:38:36;;;;;;;4.30;3.92;;;;;;;;;;5071816;28;20734;-90
2023/08/23 00:41:02;;;;;;;4.20;3.78;;;;;;;;;;5068047;28;20387;-90
2023/08/23 00:43:51;;;;;;;;;;;;;;;;;;;;;
2023/08/23 00:46:19;;;;;;;4.70;4.30;;;;;;;;;;5080184;28;20735;-90
2023/08/23 00:48:46;;;;;;;4.03;3.80;;;;;;;;;;5067449;28;20379;-89
2023/08/23 00:51:15;;;;;;;4.03;3.83;;;;;;;;;;5094764;28;20374;-91
2023/08/23 00:53:53;;;;;;;4.43;4.03;;;;;;;;;;5069449;28;20455;-91
2023/08/23 00:56:22;;;;;;;4.07;3.77;;;;;;;;;;5084383;28;20378;-90
2023/08/23 00:58:54;;;;;;;3.92;3.53;;;;;;;;;;5065380;28;20436;-91
2023/08/23 01:01:30;;;;;;;4.18;3.80;;;;;;;;;;5070984;28;20390;-90
2023/08/23 01:03:57;;;;;;;4.20;3.70;;;;;;;;;;5058072;28;20718;-91
2023/08/23 01:06:58;;;;;;;3.63;3.43;;;;;;;;;;5074155;28;20378;-90
2023/08/23 01:09:43;;;;;;;4.00;3.70;;;;;;;;;;5059893;28;20391;-91
2023/08/23 01:12:09;;;;;;;4.03;3.63;;;;;;;;;;5062448;28;20384;-91
2023/08/23 01:14:38;;;;;;;4.07;3.78;;;;;;;;;;5058861;28;20392;-91
2023/08/23 01:17:04;;;;;;;4.20;3.80;;;;;;;;;;5076993;28;20413;-90
2023/08/23 01:19:38;;;;;;;3.97;3.67;;;;;;;;;;5075853;28;20390;-91
2023/08/23 01:22:05;;;;;;;3.85;3.55;;;;;;;;;;5063399;28;20414;-91
2023/08/23 01:24:41;;;;;;;4.10;3.70;;;;;;;;;;5063853;28;20397;-88
2023/08/23 01:27:07;;;;;;;3.75;3.55;;;;;;;;;;5063380;28;20438;-90
2023/08/23 01:29:33;;;;;;;4.65;4.25;;;;;;;;;;5056227;28;20392;-91
2023/08/23 01:32:05;;;;;;;3.83;3.55;;;;;;;;;;5079893;28;20378;-90
2023/08/23 01:34:35;;;;;;;4.70;4.28;;;;;;;;;;5066315;28;20533;-90
2023/08/23 01:37:02;;;;;;;4.00;3.70;;;;;;;;;;5063135;28;20938;-90
2023/08/23 01:39:29;;;;;;;3.88;3.67;;;;;;;;;;5068071;28;20398;-90
2023/08/23 01:41:58;;;;;;;4.25;3.88;;;;;;;;;;5077391;28;20403;-90
2023/08/23 01:44:33;;;;;;;4.47;4.07;;;;;;;;;;5069998;28;20405;-90
2023/08/23 01:46:59;;;;;;;4.30;4.00;;;;;;;;;;5065416;28;20463;-90
2023/08/23 01:49:28;;;;;;;4.53;4.22;;;;;;;;;;5066430;28;20395;-90
2023/08/23 01:51:54;;;;;;;4.60;4.20;;;;;;;;;;5063582;28;20389;-90
2023/08/23 01:54:21;;;;;;;4.40;4.10;;;;;;;;;;5060027;28;20376;-90
2023/08/23 01:56:50;;;;;;;5.10;4.60;;;;;;;;;;5072957;28;20459;-90
2023/08/23 01:59:16;;;;;;;4.70;4.20;;;;;;;;;;5062119;28;20772;-90
2023/08/23 02:01:45;;;;;;;4.82;4.32;;;;;;;;;;5074017;28;20410;-90
2023/08/23 02:04:13;;;;;;;4.60;4.30;;;;;;;;;;5092184;28;20723;-90
2023/08/23 02:06:42;;;;;;;4.70;4.30;;;;;;;;;;5056979;28;20386;-90
2023/08/23 02:09:08;;;;;;;4.50;4.20;;;;;;;;;;5054374;28;20380;-90
2023/08/23 02:11:36;;;;;;;4.40;4.10;;;;;;;;;;5072212;28;20561;-90
2023/08/23 02:14:02;;;;;;;4.20;3.90;;;;;;;;;;5058279;28;20382;-90
2023/08/23 02:16:28;;;;;;;4.40;4.10;;;;;;;;;;5064039;28;20388;-90
2023/08/23 02:18:57;;;;;;;4.50;4.10;;;;;;;;;;5059967;28;20404;-90
2023/08/23 02:21:29;;;;;;;4.65;4.15;;;;;;;;;;5056479;28;20383;-90
2023/08/23 02:23:57;;;;;;;4.70;4.30;;;;;;;;;;5061585;28;20790;-90
2023/08/23 02:26:23;;;;;;;5.05;4.10;;;;;;;;;;5083284;28;20786;-90
2023/08/23 02:28:55;;;;;;;4.50;3.95;;;;;;;;;;5059400;28;20395;-90
2023/08/23 02:31:21;;;;;;;4.32;3.90;;;;;;;;;;5058378;28;20458;-90
2023/08/23 02:33:47;;;;;;;4.28;3.88;;;;;;;;;;5084553;28;20460;-91
2023/08/23 02:36:13;;;;;;;4.55;4.15;;;;;;;;;;5057141;28;20384;-89
2023/08/23 02:38:42;;;;;;;4.15;3.85;;;;;;;;;;5070519;28;20395;-91
2023/08/23 02:41:11;;;;;;;4.53;4.13;;;;;;;;;;5059530;28;20375;-91
2023/08/23 02:43:46;;;;;;;4.68;4.28;;;;;;;;;;5062960;28;20415;-91
2023/08/23 02:46:18;;;;;;;3.90;3.70;;;;;;;;;;5070233;28;20396;-90
2023/08/23 02:48:47;;;;;;;4.43;4.13;;;;;;;;;;5055611;28;20383;-91
2023/08/23 02:51:13;;;;;;;4.60;4.20;;;;;;;;;;5056689;28;20387;-90
2023/08/23 02:53:40;;;;;;;5.10;4.60;;;;;;;;;;5054597;28;20461;-90
2023/08/23 02:56:12;;;;;;;4.72;4.22;;;;;;;;;;5068881;28;20378;-90
2023/08/23 02:58:41;;;;;;;4.87;4.47;;;;;;;;;;5060712;28;20439;-90
2023/08/23 03:01:17;;;;;;;4.73;4.33;;;;;;;;;;5070535;28;20463;-89
2023/08/23 03:03:46;;;;;;;4.30;4.00;;;;;;;;;;5054123;28;20419;-90
2023/08/23 03:06:13;;;;;;;4.07;3.78;;;;;;;;;;5055138;28;20379;-90
2023/08/23 03:09:07;;;;;;;4.32;3.92;;;;;;;;;;5067611;28;20387;-91
2023/08/23 03:11:38;;;;;;;4.00;3.70;;;;;;;;;;5085638;28;20396;-90
2023/08/23 03:14:07;;;;;;;4.43;4.03;;;;;;;;;;5090831;28;20415;-91
2023/08/23 03:16:38;;;;;;;4.10;3.80;;;;;;;;;;5076391;28;20412;-90
2023/08/23 03:19:43;;;;;;;4.40;4.00;;;;;;;;;;5079804;28;20396;-90
2023/08/23 03:22:09;;;;;;;4.00;3.70;;;;;;;;;;5056175;28;20832;-91
2023/08/23 03:24:44;;;;;;;4.13;3.83;;;;;;;;;;5053383;28;20420;-91
2023/08/23 03:27:13;;;;;;;4.07;3.77;;;;;;;;;;5071283;28;20388;-90
2023/08/23 03:29:47;;;;;;;4.45;4.15;;;;;;;;;;5066480;28;20742;-90
2023/08/23 03:32:26;;;;;;;4.85;4.43;;;;;;;;;;5052511;28;20501;-91
2023/08/23 03:35:01;;;;;;;4.15;3.85;;;;;;;;;;5060759;28;20389;-91
2023/08/23 03:37:27;;;;;;;4.28;3.97;;;;;;;;;;5060847;28;20403;-91
2023/08/23 03:39:55;;;;;;;3.92;3.63;;;;;;;;;;5053606;28;20428;-90
2023/08/23 03:42:21;;;;;;;4.15;3.85;;;;;;;;;;5059604;28;20416;-90
2023/08/23 03:44:47;;;;;;;4.50;4.10;;;;;;;;;;5065535;28;20500;-90
2023/08/23 03:47:13;;;;;;;4.50;4.10;;;;;;;;;;5053220;28;20433;-90
2023/08/23 03:49:45;;;;;;;4.32;3.92;;;;;;;;;;5055983;28;20441;-90
2023/08/23 03:52:11;;;;;;;4.25;3.92;;;;;;;;;;5056515;28;20392;-90
2023/08/23 03:54:40;;;;;;;4.30;3.90;;;;;;;;;;5072499;28;20449;-89
2023/08/23 03:57:06;;;;;;;4.38;4.07;;;;;;;;;;5067022;28;20903;-90
2023/08/23 04:03:04;;;;;;;4.25;3.88;;;;;;;;;;5016243;28;20520;-89
2023/08/23 04:05:51;;;;;;;;;;;;;;;;;;;;;
2023/08/23 04:08:37;;;;;;;4.50;4.07;;;;;;;;;;5002441;28;20972;-90
2023/08/23 04:11:13;;;;;;;4.13;3.83;;;;;;;;;;4995713;28;20782;-91
2023/08/23 04:13:42;;;;;;;4.10;3.80;;;;;;;;;;5008893;28;20884;-90
2023/08/23 04:16:15;;;;;;;4.25;3.85;;;;;;;;;;4977484;28;20411;-90
2023/08/23 04:18:41;;;;;;;4.40;4.05;;;;;;;;;;4993451;28;20395;-90
2023/08/23 04:21:07;;;;;;;4.50;4.10;;;;;;;;;;4989311;28;20402;-90
2023/08/23 04:23:33;;;;;;;4.47;4.10;;;;;;;;;;4988144;28;20845;-89
2023/08/23 04:25:59;;;;;;;4.57;4.18;;;;;;;;;;4981747;28;20889;-89
2023/08/23 04:28:27;;;;;;;4.00;3.70;;;;;;;;;;4995670;28;20487;-89
2023/08/23 04:30:53;;;;;;;4.53;4.17;;;;;;;;;;4997766;28;20470;-89
2023/08/23 04:33:19;;;;;;;7.25;4.03;;;;;;;;;;4995482;28;20393;-89
2023/08/23 04:35:45;;;;;;;4.97;4.50;;;;;;;;;;4994306;28;20439;-90
2023/08/23 04:38:13;;;;;;;4.57;4.18;;;;;;;;;;4995332;28;20388;-89
2023/08/23 04:40:39;;;;;;;3.97;3.63;;;;;;;;;;5074232;28;20376;-89
2023/08/23 04:43:05;;;;;;;4.57;3.93;;;;;;;;;;5070974;28;20414;-90
2023/08/23 04:45:31;;;;;;;4.30;3.90;;;;;;;;;;5068576;28;20769;-89
2023/08/23 04:47:57;;;;;;;4.10;3.80;;;;;;;;;;5059181;28;20381;-90
2023/08/23 04:50:26;;;;;;;4.22;3.85;;;;;;;;;;5075454;28;20417;-90
2023/08/23 04:52:52;;;;;;;4.20;3.90;;;;;;;;;;5074537;28;20902;-90
2023/08/23 04:55:21;;;;;;;4.20;3.90;;;;;;;;;;5067561;28;20417;-90
2023/08/23 04:57:47;;;;;;;4.75;3.92;;;;;;;;;;5055194;28;20387;-91
2023/08/23 05:00:39;;;;;;;4.60;4.20;;;;;;;;;;5061810;28;20382;-90
2023/08/23 05:03:06;;;;;;;4.25;3.85;;;;;;;;;;5048573;28;20455;-89
2023/08/23 05:05:35;;;;;;;4.63;3.80;;;;;;;;;;5055185;28;20741;-90
2023/08/23 05:08:17;;;;;;;4.43;4.07;;;;;;;;;;5070382;28;20382;-90
2023/08/23 05:10:44;;;;;;;5.47;4.00;;;;;;;;;;5054683;28;20880;-89
2023/08/23 05:13:14;;;;;;;4.13;3.75;;;;;;;;;;5066749;28;20389;-90
2023/08/23 05:15:40;;;;;;;4.25;3.85;;;;;;;;;;5075497;28;20374;-88
2023/08/23 05:18:06;;;;;;;4.55;4.15;;;;;;;;;;5075259;28;20424;-88
2023/08/23 05:20:32;;;;;;;4.70;4.20;;;;;;;;;;5075655;28;20386;-88
2023/08/23 05:22:58;;;;;;;5.47;3.90;;;;;;;;;;5075036;28;20420;-88
2023/08/23 05:25:24;;;;;;;4.18;3.88;;;;;;;;;;5075119;28;20437;-88
2023/08/23 05:27:50;;;;;;;4.63;3.85;;;;;;;;;;5058396;28;20418;-88
2023/08/23 05:30:38;;;;;;;4.00;3.70;;;;;;;;;;5055196;28;20786;-88
2023/08/23 05:33:04;;;;;;;4.38;3.85;;;;;;;;;;5078388;28;20378;-88
2023/08/23 05:35:30;;;;;;;4.10;3.77;;;;;;;;;;5071874;28;20873;-89
2023/08/23 05:37:56;;;;;;;4.07;3.70;;;;;;;;;;5068899;28;20392;-88
2023/08/23 05:40:22;;;;;;;4.28;3.92;;;;;;;;;;5057129;28;20384;-88
2023/08/23 05:42:48;;;;;;;4.68;4.28;;;;;;;;;;5054768;28;20912;-89
2023/08/23 05:45:14;;;;;;;4.47;4.18;;;;;;;;;;5061308;28;20392;-88
2023/08/23 05:47:40;;;;;;;4.10;3.80;;;;;;;;;;5086638;28;20492;-88
2023/08/23 05:50:06;;;;;;;4.35;3.95;;;;;;;;;;5054967;28;20821;-89
2023/08/23 05:52:32;;;;;;;4.35;3.90;;;;;;;;;;5068970;28;20390;-88
2023/08/23 05:54:58;;;;;;;4.10;3.80;;;;;;;;;;5074952;28;20393;-88
2023/08/23 05:57:24;;;;;;;4.50;3.90;;;;;;;;;;5063919;28;20476;-89
2023/08/23 05:59:50;;;;;;;4.17;3.77;;;;;;;;;;5060279;28;20418;-88
2023/08/23 06:02:16;;;;;;;4.50;4.10;;;;;;;;;;5063540;28;20413;-88
2023/08/23 06:04:42;;;;;;;4.63;4.23;;;;;;;;;;5065532;28;20421;-89
2023/08/23 06:07:08;;;;;;;4.10;3.77;;;;;;;;;;5063236;28;20392;-88
2023/08/23 06:09:34;;;;;;;4.15;3.85;;;;;;;;;;5067213;28;20426;-88
2023/08/23 06:12:00;;;;;;;4.30;3.90;;;;;;;;;;5078640;28;20386;-90
2023/08/23 06:14:26;;;;;;;4.20;3.90;;;;;;;;;;5062657;28;20388;-88
2023/08/23 06:16:53;;;;;;;5.10;4.18;;;;;;;;;;5073723;28;20389;-89
2023/08/23 06:19:19;;;;;;;4.72;4.32;;;;;;;;;;5072620;28;20793;-89
2023/08/23 06:21:45;;;;;;;4.37;3.97;;;;;;;;;;5065586;28;20799;-90
2023/08/23 06:24:13;;;;;;;5.03;3.85;;;;;;;;;;5078210;28;20390;-90
2023/08/23 06:26:39;;;;;;;3.70;3.40;;;;;;;;;;5064616;28;20459;-88
2023/08/23 06:29:05;;;;;;;4.45;4.07;;;;;;;;;;5081278;28;20851;-90
2023/08/23 06:31:40;;;;;;;4.70;4.20;;;;;;;;;;5078876;28;20418;-89
2023/08/23 06:34:55;;;;;;;3.80;3.50;;;;;;;;;;5089047;28;20387;-89
2023/08/23 06:37:28;;;;;;;4.10;3.78;;;;;;;;;;5081173;28;20401;-91
2023/08/23 06:42:55;;;;;;;4.32;3.92;;;;;;;;;;5074268;28;20839;-91
2023/08/23 06:45:21;;;;;;;3.53;3.22;;;;;;;;;;5066063;28;20394;-90
2023/08/23 06:47:49;;;;;;;3.83;3.53;;;;;;;;;;5068065;28;20392;-90
2023/08/23 06:53:37;;;;;;;3.80;3.45;;;;;;;;;;5071547;22;20428;-88
2023/08/23 06:56:44;;;;;;;3.80;3.50;;;;;;;;;;5065331;28;20396;-87
2023/08/23 06:59:12;;;;;;;4.20;3.80;;;;;;;;;;5067479;28;20469;-89
2023/08/23 07:01:38;;;;;;;4.40;3.40;;;;;;;;;;5034818;28;20758;-89
2023/08/23 07:04:30;;;;;;;4.05;3.65;;;;;;;;;;5029122;28;20442;-90
2023/08/23 07:06:59;;;;;;;3.70;3.40;;;;;;;;;;5020680;28;20394;-91
2023/08/23 07:21:15;;;;;;;3.65;3.28;;;;;;;;;;5058909;28;20398;-89
2023/08/23 07:23:41;;;;;;;3.50;3.10;;;;;;;;;;5058968;28;20411;-88
2023/08/23 07:26:09;;;;;;;3.00;2.80;;;;;;;;;;5056757;28;20741;-88
2023/08/23 07:28:35;;;;;;;3.78;3.15;;;;;;;;;;5064970;28;20888;-88
2023/08/23 07:31:02;;;;;;;3.20;2.90;;;;;;;;;;5050863;28;20387;-88
2023/08/23 07:33:28;;;;;;;4.80;3.60;;;;;;;;;;5074353;28;20415;-88
2023/08/23 07:35:58;;;;;;;3.83;3.00;;;;;;;;;;5056424;28;20399;-89
2023/08/23 07:38:24;;;;;;;3.53;3.17;;;;;;;;;;5056539;28;20388;-88
2023/08/23 07:40:50;;;;;;;3.47;3.17;;;;;;;;;;5055781;28;20819;-88
2023/08/23 07:43:16;;;;;;;4.45;3.47;;;;;;;;;;5056226;28;20407;-88
2023/08/23 07:45:42;;;;;;;4.68;3.00;;;;;;;;;;5056209;28;20449;-88
2023/08/23 07:48:08;;;;;;;3.43;2.97;;;;;;;;;;5074394;28;20392;-88
2023/08/23 07:50:35;;;;;;;3.63;3.10;;;;;;;;;;5056170;28;20991;-88
2023/08/23 07:53:01;;;;;;;3.70;3.10;;;;;;;;;;5056165;28;20853;-88
2023/08/23 07:55:27;;;;;;;3.83;3.10;;;;;;;;;;5074044;28;20479;-88
2023/08/23 07:57:53;;;;;;;4.87;3.30;;;;;;;;;;5055379;28;20380;-88
2023/08/23 08:00:20;;;;;;;3.50;3.17;;;;;;;;;;5070020;28;20391;-88
2023/08/23 08:02:46;;;;;;;3.90;3.00;;;;;;;;;;5068583;28;20411;-88
2023/08/23 08:05:12;;;;;;;3.30;3.03;;;;;;;;;;5054824;28;20408;-88
2023/08/23 08:07:38;;;;;;;5.30;3.53;;;;;;;;;;5072843;28;20410;-88
2023/08/23 08:10:05;;;;;;;3.53;3.22;;;;;;;;;;5071940;28;20380;-89
2023/08/23 08:12:31;;;;;;;5.53;3.30;;;;;;;;;;5072658;28;20391;-89
2023/08/23 08:14:59;;;;;;;4.07;3.25;;;;;;;;;;5074040;28;20408;-87
2023/08/23 08:17:28;;;;;;;5.13;3.20;;;;;;;;;;5073578;28;20952;-88
2023/08/23 08:19:56;;;;;;;3.10;2.80;;;;;;;;;;5071644;28;20401;-89
2023/08/23 08:22:22;;;;;;;4.88;3.30;;;;;;;;;;5055319;28;20415;-88
2023/08/23 08:24:48;;;;;;;6.00;3.17;;;;;;;;;;5035889;28;20500;-88
2023/08/23 08:27:14;;;;;;;5.90;3.25;;;;;;;;;;5036030;28;20417;-88
2023/08/23 08:29:40;;;;;;;6.00;3.30;;;;;;;;;;5050692;28;20425;-88
2023/08/23 08:32:06;;;;;;;5.20;3.45;;;;;;;;;;5046160;28;20843;-89
2023/08/23 08:34:32;;;;;;;4.40;3.50;;;;;;;;;;5052963;28;20388;-88
2023/08/23 08:36:58;;;;;;;4.10;3.50;;;;;;;;;;5054206;28;20464;-88
2023/08/23 08:39:24;;;;;;;4.00;3.47;;;;;;;;;;5047380;28;20471;-88
2023/08/23 08:41:51;;;;;;;3.65;3.30;;;;;;;;;;5073752;28;20921;-89
2023/08/23 08:44:17;;;;;;;6.57;3.40;;;;;;;;;;5055753;28;20411;-88
2023/08/23 08:46:43;;;;;;;3.70;3.40;;;;;;;;;;5074680;28;20384;-88
2023/08/23 08:49:09;;;;;;;3.70;3.20;;;;;;;;;;5064982;28;20443;-89
2023/08/23 08:51:36;;;;;;;5.53;3.58;;;;;;;;;;5049778;28;20396;-88
2023/08/23 08:54:05;;;;;;;5.70;3.25;;;;;;;;;;5053919;28;20412;-88
2023/08/23 08:56:31;;;;;;;4.68;3.28;;;;;;;;;;5068937;28;20478;-88
2023/08/23 08:58:58;;;;;;;4.70;3.38;;;;;;;;;;5074939;28;20390;-88
2023/08/23 09:01:25;;;;;;;3.65;3.15;;;;;;;;;;5055493;28;20457;-88
2023/08/23 09:03:51;;;;;;;3.47;3.13;;;;;;;;;;5055326;28;20412;-88
2023/08/23 09:06:20;;;;;;;4.45;3.60;;;;;;;;;;5064104;28;20426;-87
2023/08/23 09:08:46;;;;;;;5.68;3.47;;;;;;;;;;5071609;28;20387;-89
2023/08/23 09:11:12;;;;;;;5.35;3.45;;;;;;;;;;5055810;28;20376;-89
2023/08/23 09:13:38;;;;;;;3.55;3.25;;;;;;;;;;5073266;28;20475;-89
2023/08/23 09:16:04;;;;;;;5.10;3.22;;;;;;;;;;5067147;28;20467;-86
2023/08/23 09:18:33;;;;;;;3.70;3.30;;;;;;;;;;5069608;28;20402;-86
2023/08/23 09:20:59;;;;;;;3.75;3.35;;;;;;;;;;5066232;28;20470;-87
2023/08/23 09:23:25;;;;;;;4.90;3.40;;;;;;;;;;5067649;28;20514;-87
2023/08/23 09:25:51;;;;;;;4.00;3.28;;;;;;;;;;5054573;28;20376;-87
2023/08/23 09:28:17;;;;;;;3.72;3.25;;;;;;;;;;5072482;28;20387;-87
2023/08/23 09:30:47;;;;;;;4.53;3.58;;;;;;;;;;5067770;28;20372;-87
2023/08/23 09:33:13;;;;;;;3.42;3.13;;;;;;;;;;5075822;28;20876;-87
2023/08/23 09:35:47;;;;;;;3.42;3.13;;;;;;;;;;5055574;28;20387;-87
2023/08/23 09:38:17;;;;;;;4.75;3.03;;;;;;;;;;5068440;28;20375;-87
2023/08/23 09:40:44;;;;;;;4.95;3.08;;;;;;;;;;5073037;28;20467;-87
2023/08/23 09:43:12;;;;;;;4.05;3.20;;;;;;;;;;5064977;28;20415;-87
2023/08/23 09:45:38;;;;;;;3.67;3.38;;;;;;;;;;5072770;28;20452;-87
2023/08/23 09:48:05;;;;;;;3.97;3.58;;;;;;;;;;5054441;28;20489;-87
2023/08/23 09:50:32;;;;;;;4.47;3.65;;;;;;;;;;5070173;28;20418;-87
2023/08/23 09:53:06;;;;;;;4.45;3.80;;;;;;;;;;5046582;28;20431;-88
2023/08/23 09:55:35;;;;;;;3.60;3.10;;;;;;;;;;5054113;28;20388;-87
2023/08/23 09:58:02;;;;;;;4.30;3.28;;;;;;;;;;5077594;28;20372;-88
2023/08/23 10:00:28;;;;;;;3.42;3.05;;;;;;;;;;5072609;28;20388;-88
2023/08/23 10:02:58;;;;;;;5.75;3.95;;;;;;;;;;5071785;28;20403;-87
2023/08/23 10:05:25;;;;;;;4.30;3.40;;;;;;;;;;5066114;28;20419;-87
2023/08/23 10:07:53;;;;;;;4.00;3.38;;;;;;;;;;5065132;28;20918;-87
2023/08/23 10:10:19;;;;;;;7.32;4.57;;;;;;;;;;5054173;28;20384;-88
2023/08/23 10:12:46;;;;;;;4.90;3.95;;;;;;;;;;5069046;28;20506;-87
2023/08/23 10:15:15;;;;;;;4.57;4.18;;;;;;;;;;5052792;28;20435;-88
2023/08/23 10:17:41;;;;;;;3.67;3.38;;;;;;;;;;5069889;28;20479;-88
2023/08/23 10:20:08;;;;;;;4.22;3.80;;;;;;;;;;5063409;28;20475;-87
2023/08/23 10:22:34;;;;;;;5.30;4.30;;;;;;;;;;5070532;28;20418;-88
2023/08/23 10:25:00;;;;;;;6.30;4.60;;;;;;;;;;5052107;28;20397;-87
2023/08/23 10:27:26;;;;;;;6.93;6.05;;;;;;;;;;5070481;28;20432;-88
2023/08/23 10:29:52;;;;;;;5.88;5.10;;;;;;;;;;5050536;28;20444;-87
2023/08/23 10:32:19;;;;;;;5.40;4.90;;;;;;;;;;5049722;28;20812;-88
2023/08/23 10:34:45;;;;;;;4.85;4.35;;;;;;;;;;5052959;28;20384;-87
2023/08/23 10:37:17;;;;;;;4.00;3.63;;;;;;;;;;5068686;28;20379;-87
2023/08/23 10:39:50;;;;;;;4.03;3.70;;;;;;;;;;5071058;28;20406;-88
2023/08/23 10:42:20;;;;;;;6.75;4.03;;;;;;;;;;5059442;28;20820;-87
2023/08/23 10:44:49;;;;;;;5.28;4.30;;;;;;;;;;5051784;28;20447;-87
2023/08/23 10:47:16;;;;;;;4.97;4.30;;;;;;;;;;5069180;28;20390;-87
2023/08/23 10:49:42;;;;;;;5.57;4.60;;;;;;;;;;5063280;28;20376;-88
2023/08/23 10:52:08;;;;;;;5.38;4.60;;;;;;;;;;5071165;28;20465;-89
2023/08/23 10:54:34;;;;;;;5.00;4.50;;;;;;;;;;5053349;28;20392;-89
2023/08/23 10:57:00;;;;;;;5.15;4.65;;;;;;;;;;5054844;28;20415;-88
2023/08/23 10:59:26;;;;;;;6.35;4.57;;;;;;;;;;5067009;28;20983;-88
2023/08/23 11:01:52;;;;;;;5.43;3.90;;;;;;;;;;5068063;28;20387;-88
2023/08/23 11:04:18;;;;;;;6.15;4.25;;;;;;;;;;5056304;28;20919;-88
2023/08/23 11:06:46;;;;;;;4.13;3.70;;;;;;;;;;5075065;28;20402;-88
2023/08/23 11:09:12;;;;;;;5.57;3.80;;;;;;;;;;5075003;28;20406;-88
2023/08/23 11:11:38;;;;;;;4.57;3.80;;;;;;;;;;5074669;28;20732;-88
2023/08/23 11:14:04;;;;;;;4.15;3.72;;;;;;;;;;5056662;28;20384;-89
2023/08/23 11:16:30;;;;;;;7.88;4.40;;;;;;;;;;5056591;28;20395;-88
2023/08/23 11:18:56;;;;;;;5.63;4.88;;;;;;;;;;5056383;28;20753;-88
2023/08/23 11:21:22;;;;;;;5.65;4.10;;;;;;;;;;5056616;28;20376;-88
2023/08/23 11:23:48;;;;;;;7.30;4.45;;;;;;;;;;5056693;28;20497;-88
2023/08/23 11:26:14;;;;;;;7.03;3.67;;;;;;;;;;5068265;28;20385;-88
2023/08/23 11:28:40;;;;;;;9.50;4.60;;;;;;;;;;5067038;28;20962;-88
2023/08/23 11:31:08;;;;;;;3.87;3.57;;;;;;;;;;5056334;28;20391;-88
2023/08/23 11:33:34;;;;;;;4.57;3.63;;;;;;;;;;5063933;28;20382;-88
2023/08/23 11:36:04;;;;;;;4.32;3.72;;;;;;;;;;5052892;28;20415;-89
2023/08/23 11:38:30;;;;;;;4.32;3.92;;;;;;;;;;5074853;28;20460;-88
2023/08/23 11:40:59;;;;;;;5.00;3.67;;;;;;;;;;5076237;28;20402;-88
2023/08/23 11:43:31;;;;;;;6.63;4.60;;;;;;;;;;5078836;28;20431;-88
2023/08/23 11:45:57;;;;;;;5.13;4.28;;;;;;;;;;5075558;28;20387;-88
2023/08/23 11:48:24;;;;;;;5.00;4.20;;;;;;;;;;5072992;28;20865;-89
2023/08/23 11:50:50;;;;;;;5.70;4.40;;;;;;;;;;5072192;28;20388;-88
2023/08/23 11:53:16;;;;;;;4.30;3.45;;;;;;;;;;5060511;28;20877;-89
2023/08/23 11:55:42;;;;;;;3.72;3.40;;;;;;;;;;5056470;28;20468;-89
2023/08/23 11:58:09;;;;;;;5.50;3.95;;;;;;;;;;5055250;28;20388;-88
2023/08/23 12:00:36;;;;;;;4.32;3.40;;;;;;;;;;5072718;28;20406;-88
2023/08/23 12:03:02;;;;;;;3.85;3.45;;;;;;;;;;5073349;28;20915;-89
2023/08/23 12:05:28;;;;;;;4.28;3.45;;;;;;;;;;5040057;28;20388;-88
2023/08/23 12:07:54;;;;;;;4.88;3.58;;;;;;;;;;5066496;28;20405;-88
2023/08/23 12:10:21;;;;;;;4.15;3.42;;;;;;;;;;5066779;28;20421;-88
2023/08/23 12:12:47;;;;;;;3.42;3.22;;;;;;;;;;5065151;28;20452;-88
2023/08/23 12:15:16;;;;;;;3.80;3.50;;;;;;;;;;5055813;28;20395;-89
2023/08/23 12:17:42;;;;;;;5.78;4.20;;;;;;;;;;5060989;28;20388;-89
2023/08/23 12:20:10;;;;;;;5.22;3.70;;;;;;;;;;5055511;28;20394;-89
2023/08/23 12:22:36;;;;;;;5.57;3.70;;;;;;;;;;5055171;28;20504;-89
2023/08/23 12:25:02;;;;;;;7.03;3.60;;;;;;;;;;5055456;28;20415;-89
2023/08/23 12:27:28;;;;;;;4.20;3.17;;;;;;;;;;5053012;28;20710;-89
2023/08/23 12:29:54;;;;;;;3.55;3.25;;;;;;;;;;5041026;28;20444;-89
2023/08/23 12:32:20;;;;;;;3.35;3.00;;;;;;;;;;5049928;28;20454;-89
2023/08/23 12:34:47;;;;;;;5.53;3.30;;;;;;;;;;5067220;28;20394;-88
2023/08/23 12:37:13;;;;;;;4.13;3.75;;;;;;;;;;5047943;28;20390;-90
2023/08/23 12:39:39;;;;;;;4.00;3.60;;;;;;;;;;5053510;28;20731;-89
2023/08/23 12:42:05;;;;;;;3.92;3.20;;;;;;;;;;5042953;28;20461;-89
2023/08/23 12:44:33;;;;;;;3.53;2.90;;;;;;;;;;5069702;28;20388;-89
2023/08/23 12:46:58;;;;;;;6.50;3.30;;;;;;;;;;5073308;28;20913;-88
2023/08/23 12:49:24;;;;;;;3.55;3.25;;;;;;;;;;5071544;28;20501;-89
2023/08/23 12:51:50;;;;;;;3.40;3.10;;;;;;;;;;5054904;28;20403;-87
2023/08/23 12:54:18;;;;;;;3.45;3.05;;;;;;;;;;5050150;28;20396;-88
2023/08/23 12:56:44;;;;;;;3.53;3.23;;;;;;;;;;5072281;28;20390;-88
2023/08/23 12:59:10;;;;;;;3.53;3.22;;;;;;;;;;5054378;28;20738;-86
2023/08/23 13:01:36;;;;;;;3.83;2.90;;;;;;;;;;5071660;28;20391;-86
2023/08/23 13:04:02;;;;;;;3.30;3.00;;;;;;;;;;5073035;28;20416;-86
2023/08/23 13:06:28;;;;;;;3.85;3.05;;;;;;;;;;5071671;28;20404;-85
2023/08/23 13:08:54;;;;;;;3.60;3.03;;;;;;;;;;5075775;28;20399;-86
2023/08/23 13:11:20;;;;;;;3.58;2.92;;;;;;;;;;5055670;28;20375;-87
2023/08/23 13:13:51;;;;;;;3.72;3.08;;;;;;;;;;5073274;28;20398;-87
2023/08/23 13:16:17;;;;;;;3.20;2.90;;;;;;;;;;5065758;28;20423;-87
2023/08/23 13:18:43;;;;;;;5.32;2.80;;;;;;;;;;5047646;28;20394;-88
2023/08/23 13:21:09;;;;;;;3.73;3.37;;;;;;;;;;5055710;28;20437;-88
2023/08/23 13:23:35;;;;;;;5.72;3.25;;;;;;;;;;5056388;28;20408;-88
2023/08/23 13:26:01;;;;;;;3.83;3.38;;;;;;;;;;5068288;28;20413;-88
2023/08/23 13:28:28;;;;;;;3.63;3.25;;;;;;;;;;5047131;28;20391;-87
2023/08/23 13:30:54;;;;;;;4.15;3.55;;;;;;;;;;5057610;28;20855;-87
2023/08/23 13:33:20;;;;;;;4.25;3.30;;;;;;;;;;5040798;28;20476;-87
2023/08/23 13:35:46;;;;;;;5.00;3.30;;;;;;;;;;5068277;28;20379;-88
2023/08/23 13:38:14;;;;;;;3.57;3.10;;;;;;;;;;5073493;28;20380;-87
2023/08/23 13:40:40;;;;;;;3.50;3.20;;;;;;;;;;5058568;28;20386;-88
2023/08/23 13:43:06;;;;;;;3.77;3.00;;;;;;;;;;5053622;28;20553;-88
2023/08/23 13:45:33;;;;;;;3.75;3.20;;;;;;;;;;5061851;28;20756;-88
2023/08/23 13:47:59;;;;;;;3.63;3.20;;;;;;;;;;5048163;28;20424;-88
2023/08/23 13:50:25;;;;;;;3.70;3.40;;;;;;;;;;5044408;28;20427;-88
2023/08/23 13:52:51;;;;;;;3.83;3.43;;;;;;;;;;5053756;28;20396;-88
2023/08/23 13:55:17;;;;;;;3.35;3.05;;;;;;;;;;5065047;28;20396;-88
2023/08/23 13:57:43;;;;;;;4.50;3.13;;;;;;;;;;5044419;28;20382;-87
2023/08/23 14:00:09;;;;;;;4.93;3.20;;;;;;;;;;5063239;28;20390;-87
2023/08/23 14:02:35;;;;;;;3.85;3.17;;;;;;;;;;5061485;28;20444;-88
2023/08/23 14:05:02;;;;;;;3.70;3.20;;;;;;;;;;5048508;28;20393;-88
2023/08/23 14:07:28;;;;;;;4.13;3.15;;;;;;;;;;5052050;28;20382;-88
2023/08/23 14:09:54;;;;;;;3.33;2.90;;;;;;;;;;5047823;28;20472;-87
2023/08/23 14:12:20;;;;;;;5.05;3.47;;;;;;;;;;5053286;28;20810;-88
2023/08/23 14:14:46;;;;;;;3.40;3.10;;;;;;;;;;5056322;28;20417;-87
2023/08/23 14:17:12;;;;;;;3.65;3.30;;;;;;;;;;5054671;28;20478;-88
2023/08/23 14:19:48;;;;;;;3.53;3.22;;;;;;;;;;5054128;28;20443;-88
2023/08/23 14:22:14;;;;;;;4.90;3.33;;;;;;;;;;5068283;28;20421;-88
2023/08/23 14:24:40;;;;;;;3.45;2.80;;;;;;;;;;5071793;28;20403;-88
2023/08/23 14:27:06;;;;;;;3.43;3.10;;;;;;;;;;5054223;28;20473;-88
2023/08/23 14:29:33;;;;;;;3.28;2.92;;;;;;;;;;5058368;28;20880;-88
2023/08/23 14:31:59;;;;;;;4.22;3.28;;;;;;;;;;5052953;28;20395;-88
2023/08/23 14:34:25;;;;;;;3.55;3.05;;;;;;;;;;5056373;28;20383;-88
2023/08/23 14:36:51;;;;;;;3.13;2.83;;;;;;;;;;5053411;28;20403;-88
2023/08/23 14:39:19;;;;;;;4.50;3.40;;;;;;;;;;5057933;28;20389;-88
2023/08/23 14:41:48;;;;;;;4.55;2.90;;;;;;;;;;5053783;28;20453;-88
2023/08/23 14:44:14;;;;;;;2.95;2.75;;;;;;;;;;5053142;28;20880;-88
2023/08/23 14:46:40;;;;;;;4.55;3.03;;;;;;;;;;5057978;28;20760;-88
2023/08/23 14:49:06;;;;;;;3.67;3.03;;;;;;;;;;5053046;28;20392;-88
2023/08/23 14:51:32;;;;;;;5.32;3.22;;;;;;;;;;5053899;28;20384;-87
2023/08/23 14:53:58;;;;;;;5.20;3.27;;;;;;;;;;5054785;28;20392;-88
2023/08/23 14:56:25;;;;;;;4.10;2.75;;;;;;;;;;5070324;28;20368;-88
2023/08/23 14:58:51;;;;;;;3.30;3.00;;;;;;;;;;5069845;28;20381;-88
2023/08/23 15:01:17;;;;;;;3.72;3.20;;;;;;;;;;5046243;28;20419;-88
2023/08/23 15:03:43;;;;;;;4.57;3.10;;;;;;;;;;5055122;28;20746;-88
2023/08/23 15:06:09;;;;;;;3.40;3.03;;;;;;;;;;5053276;28;20399;-88
2023/08/23 15:08:35;;;;;;;4.70;2.93;;;;;;;;;;5053460;28;20491;-88
2023/08/23 15:11:01;;;;;;;3.00;2.80;;;;;;;;;;5053818;28;20885;-87
2023/08/23 15:13:29;;;;;;;3.40;3.10;;;;;;;;;;5071766;28;20375;-88